LFNF weather

Aérodrome de Vinon
Vinon-sur-Verdon, Provence-Alpes-Côte-d'Azur, France

Public forecast

Using degrees Celsius for public forecast. Weather courtesy of forecast.io.

METAR (pilot weather report)

Closest report is Marseille Provence Airport, 30.3 nm (56.2 km) SW. Retrieved 2019/09/19 15:30 UTC (6 minutes ago):

LFML 191530Z AUTO 26005KT CAVOK 27/13 Q1016 TEMPO SHRA SCT040CB

TAF (pilot weather forecast)

Closest forecast is Marseille Provence Airport, 30.3 nm (56.2 km) SW. Retrieved 2019/09/19 15:42 UTC (0 seconds ago):

TAF TAF LFML 191400Z 1915/2021 VRB04KT CAVOK TX26/2012Z TN19/2005Z PROB30 TEMPO 1917/2004 SHRA SCT040CB